Time;durP1;ratioP1;P1;durP2;ratioP2;P2;SDS_P1;SDS_P2;PMS_P1;PMS_P2;Temp;Humidity;BMP_temperature;BMP_pressure;BME280_temperature;BME280_humidity;BME280_pressure;Samples;Min_cycle;Max_cycle;Signal;HPM_P1;HPM_P2
2023/04/07 00:00:07;;;;;;;;;;;10.70;99.90;;;;;;7340255;19;109014;-73
2023/04/07 00:02:34;;;;;;;;;;;10.70;99.90;;;;;;7336708;19;108895;-88
2023/04/07 00:05:01;;;;;;;;;;;10.60;99.90;;;;;;7341472;19;110270;-89
2023/04/07 00:07:29;;;;;;;;;;;10.60;99.90;;;;;;7343965;19;109745;-89
2023/04/07 00:09:56;;;;;;;;;;;10.60;99.90;;;;;;7356106;19;108730;-88
2023/04/07 00:12:23;;;;;;;;;;;10.50;99.90;;;;;;7345684;19;109427;-88
2023/04/07 00:14:50;;;;;;;;;;;10.60;99.90;;;;;;7347474;19;109129;-87
2023/04/07 00:17:17;;;;;;;;;;;10.50;99.90;;;;;;7362805;19;110217;-90
2023/04/07 00:22:31;;;;;;;;;;;10.50;99.90;;;;;;7331103;19;108927;-76
2023/04/07 00:24:58;;;;;;;;;;;10.50;99.90;;;;;;7347421;19;109350;-74
2023/04/07 00:27:25;;;;;;;;;;;10.50;99.90;;;;;;7335423;19;108970;-73
2023/04/07 00:29:54;;;;;;;;;;;10.50;99.90;;;;;;7338847;19;109317;-75
2023/04/07 00:32:21;;;;;;;;;;;10.50;99.90;;;;;;7344680;19;110160;-74
2023/04/07 00:34:49;;;;;;;;;;;10.50;99.90;;;;;;7342831;19;109069;-74
2023/04/07 00:37:16;;;;;;;;;;;10.50;99.90;;;;;;7338844;19;109100;-73
2023/04/07 00:39:43;;;;;;;;;;;10.50;99.90;;;;;;7338562;19;109031;-72
2023/04/07 00:42:10;;;;;;;;;;;10.50;99.90;;;;;;7339881;19;108637;-74
2023/04/07 00:44:37;;;;;;;;;;;10.50;99.90;;;;;;7334718;19;112627;-72
2023/04/07 00:47:04;;;;;;;;;;;10.50;99.90;;;;;;7338808;19;108537;-72
2023/04/07 00:49:31;;;;;;;;;;;10.50;99.90;;;;;;7335884;19;110466;-71
2023/04/07 00:51:58;;;;;;;;;;;10.50;99.90;;;;;;7338343;19;109200;-72
2023/04/07 00:54:26;;;;;;;;;;;10.50;99.90;;;;;;7342906;19;109573;-72
2023/04/07 00:56:53;;;;;;;;;;;10.50;99.90;;;;;;7335434;19;109098;-72
2023/04/07 00:59:20;;;;;;;;;;;10.50;99.90;;;;;;7336533;19;108997;-72
2023/04/07 01:02:00;;;;;;;;;;;10.50;99.90;;;;;;7336278;19;108860;-72
2023/04/07 01:04:39;;;;;;;;;;;10.50;99.90;;;;;;7335430;19;111127;-72
2023/04/07 01:07:32;;;;;;;;;;;10.40;99.90;;;;;;7338759;19;110641;-72
2023/04/07 01:10:04;;;;;;;;;;;10.40;99.90;;;;;;7336127;19;109880;-72
2023/04/07 01:12:37;;;;;;;;;;;10.50;99.90;;;;;;7336336;19;109189;-73
2023/04/07 01:15:09;;;;;;;;;;;10.40;99.90;;;;;;7337124;19;109451;-73
2023/04/07 01:17:37;;;;;;;;;;;10.50;99.90;;;;;;7338678;19;110500;-72
2023/04/07 01:20:07;;;;;;;;;;;10.40;99.90;;;;;;7339511;19;109618;-72
2023/04/07 01:22:39;;;;;;;;;;;10.40;99.90;;;;;;7336086;19;109645;-71
2023/04/07 01:25:15;;;;;;;;;;;10.40;99.90;;;;;;7335499;19;110083;-72
2023/04/07 01:27:46;;;;;;;;;;;10.30;99.90;;;;;;7336545;19;108570;-72
2023/04/07 01:30:14;;;;;;;;;;;10.30;99.90;;;;;;7334407;19;109068;-72
2023/04/07 01:32:44;;;;;;;;;;;10.30;99.90;;;;;;7337594;19;110282;-72
2023/04/07 01:35:12;;;;;;;;;;;10.30;99.90;;;;;;7336761;19;109588;-72
2023/04/07 01:37:39;;;;;;;;;;;10.20;99.90;;;;;;7335157;19;108410;-73
2023/04/07 01:40:07;;;;;;;;;;;10.20;99.90;;;;;;7344171;19;110394;-72
2023/04/07 01:42:35;;;;;;;;;;;10.10;99.90;;;;;;7336149;19;109346;-72
2023/04/07 01:45:03;;;;;;;;;;;10.20;99.90;;;;;;7334890;19;111595;-72
2023/04/07 01:47:30;;;;;;;;;;;10.10;99.90;;;;;;7336993;19;110598;-73
2023/04/07 01:50:00;;;;;;;;;;;10.10;99.90;;;;;;7336974;19;110541;-73
2023/04/07 01:52:32;;;;;;;;;;;10.10;99.90;;;;;;7331964;19;128595;-72
2023/04/07 01:54:59;;;;;;;;;;;10.10;99.90;;;;;;7338748;19;108362;-72
2023/04/07 01:57:26;;;;;;;;;;;10.00;99.90;;;;;;7334707;19;108893;-72
2023/04/07 01:59:54;;;;;;;;;;;10.00;99.90;;;;;;7338035;19;110672;-73
2023/04/07 02:02:21;;;;;;;;;;;9.90;99.90;;;;;;7332833;19;109952;-73
2023/04/07 02:04:56;;;;;;;;;;;9.80;99.90;;;;;;7335414;19;109985;-74
2023/04/07 02:07:28;;;;;;;;;;;9.70;99.90;;;;;;7334797;19;109831;-74
2023/04/07 02:15:41;;;;;;;;;;;9.60;99.90;;;;;;7331289;19;110603;-72
2023/04/07 02:18:09;;;;;;;;;;;9.60;99.90;;;;;;7344356;19;109534;-88
2023/04/07 02:23:22;;;;;;;;;;;9.50;99.90;;;;;;7340869;19;109005;-73
2023/04/07 02:25:50;;;;;;;;;;;9.50;99.90;;;;;;7341450;19;109675;-73
2023/04/07 02:28:17;;;;;;;;;;;9.40;99.90;;;;;;7341808;19;109286;-73
2023/04/07 02:30:44;;;;;;;;;;;9.40;99.90;;;;;;7341931;19;109111;-73
2023/04/07 02:33:11;;;;;;;;;;;9.40;99.90;;;;;;7337307;19;109636;-73
2023/04/07 02:35:38;;;;;;;;;;;9.40;99.90;;;;;;7343236;19;108830;-72
2023/04/07 02:38:05;;;;;;;;;;;9.40;99.90;;;;;;7342672;19;108207;-73
2023/04/07 02:40:32;;;;;;;;;;;9.40;99.90;;;;;;7336308;19;109144;-73
2023/04/07 02:42:59;;;;;;;;;;;9.40;99.90;;;;;;7340128;19;108546;-73
2023/04/07 02:45:26;;;;;;;;;;;9.40;99.90;;;;;;7345624;19;109359;-88
2023/04/07 02:47:53;;;;;;;;;;;9.40;99.90;;;;;;7346817;19;108550;-89
2023/04/07 02:50:21;;;;;;;;;;;9.40;99.90;;;;;;7343498;19;108507;-89
2023/04/07 02:52:48;;;;;;;;;;;9.30;99.90;;;;;;7335987;19;113183;-74
2023/04/07 02:55:17;;;;;;;;;;;9.30;99.90;;;;;;7341212;19;108681;-73
2023/04/07 02:57:44;;;;;;;;;;;9.30;99.90;;;;;;7339429;19;109031;-73
2023/04/07 03:00:11;;;;;;;;;;;9.30;99.90;;;;;;7338049;19;109064;-69
2023/04/07 03:02:38;;;;;;;;;;;9.30;99.90;;;;;;7336659;19;108975;-68
2023/04/07 03:05:06;;;;;;;;;;;9.20;99.90;;;;;;7339232;19;108528;-68
2023/04/07 03:07:33;;;;;;;;;;;9.10;99.90;;;;;;7345185;19;109650;-68
2023/04/07 03:10:00;;;;;;;;;;;9.00;99.90;;;;;;7340460;19;108331;-68
2023/04/07 03:12:27;;;;;;;;;;;8.90;99.90;;;;;;7338951;19;109472;-68
2023/04/07 03:14:54;;;;;;;;;;;8.90;99.90;;;;;;7339724;19;108485;-69
2023/04/07 03:31:24;;;;;;;;;;;8.50;99.90;;;;;;7344813;19;109180;-68
2023/04/07 03:33:51;;;;;;;;;;;8.40;99.90;;;;;;7339707;19;109099;-68
2023/04/07 03:36:19;;;;;;;;;;;8.40;99.90;;;;;;7339243;19;108698;-68
2023/04/07 03:38:46;;;;;;;;;;;8.30;99.90;;;;;;7338497;19;108740;-68
2023/04/07 03:41:13;;;;;;;;;;;8.30;99.90;;;;;;7339039;19;109334;-68
2023/04/07 03:43:40;;;;;;;;;;;8.20;99.90;;;;;;7337731;19;110370;-68
2023/04/07 03:46:07;;;;;;;;;;;8.20;99.90;;;;;;7338906;19;109859;-68
2023/04/07 03:48:34;;;;;;;;;;;8.20;99.90;;;;;;7339290;19;109240;-68
2023/04/07 03:51:01;;;;;;;;;;;8.20;99.90;;;;;;7339314;19;109884;-68
2023/04/07 03:53:28;;;;;;;;;;;8.20;99.90;;;;;;7342166;19;108908;-68
2023/04/07 03:55:55;;;;;;;;;;;8.10;99.90;;;;;;7337883;19;109387;-68
2023/04/07 03:58:22;;;;;;;;;;;8.10;99.90;;;;;;7338991;19;109249;-90
2023/04/07 04:00:50;;;;;;;;;;;8.00;99.90;;;;;;7347742;19;108414;-93
2023/04/07 04:03:17;;;;;;;;;;;8.00;99.90;;;;;;7345157;19;108595;-91
2023/04/07 04:05:44;;;;;;;;;;;8.00;99.90;;;;;;7347860;19;109539;-92
2023/04/07 04:08:11;;;;;;;;;;;7.90;99.90;;;;;;7346396;19;110310;-92
2023/04/07 04:10:39;;;;;;;;;;;7.90;99.90;;;;;;7352575;19;108283;-92
2023/04/07 04:13:06;;;;;;;;;;;7.90;99.90;;;;;;7354336;19;108830;-92
2023/04/07 04:15:34;;;;;;;;;;;7.80;99.90;;;;;;7348187;19;109133;-91
2023/04/07 04:18:01;;;;;;;;;;;7.90;99.90;;;;;;7345146;19;109156;-93
2023/04/07 04:20:28;;;;;;;;;;;7.80;99.90;;;;;;7348151;19;111861;-92
2023/04/07 04:22:55;;;;;;;;;;;7.70;99.90;;;;;;7348447;19;108052;-91
2023/04/07 04:25:23;;;;;;;;;;;7.70;99.90;;;;;;7353967;19;108477;-91
2023/04/07 04:27:50;;;;;;;;;;;7.60;99.90;;;;;;7348100;19;110411;-91
2023/04/07 04:30:17;;;;;;;;;;;7.60;99.90;;;;;;7348140;19;108846;-91
2023/04/07 04:32:44;;;;;;;;;;;7.50;99.90;;;;;;7349602;19;110329;-92
2023/04/07 04:35:11;;;;;;;;;;;7.50;99.90;;;;;;7352167;19;109921;-92
2023/04/07 04:37:38;;;;;;;;;;;7.50;99.90;;;;;;7345848;19;111186;-68
2023/04/07 04:40:07;;;;;;;;;;;7.40;99.90;;;;;;7336914;19;110607;-68
2023/04/07 04:42:34;;;;;;;;;;;7.40;99.90;;;;;;7336393;19;108569;-68
2023/04/07 04:45:01;;;;;;;;;;;7.40;99.90;;;;;;7336855;19;108202;-67
2023/04/07 04:47:29;;;;;;;;;;;7.30;99.90;;;;;;7336103;19;110288;-67
2023/04/07 04:49:57;;;;;;;;;;;7.30;99.90;;;;;;7339170;19;108691;-68
2023/04/07 04:52:24;;;;;;;;;;;7.20;99.90;;;;;;7336785;19;110771;-69
2023/04/07 04:54:51;;;;;;;;;;;7.20;99.90;;;;;;7333509;19;109150;-70
2023/04/07 04:57:18;;;;;;;;;;;7.20;99.90;;;;;;7346783;19;110038;-68
2023/04/07 04:59:45;;;;;;;;;;;7.10;99.90;;;;;;7334095;19;111437;-68
2023/04/07 05:02:12;;;;;;;;;;;7.10;99.90;;;;;;7336888;19;108651;-66
2023/04/07 05:04:39;;;;;;;;;;;7.10;99.90;;;;;;7334899;19;108995;-69
2023/04/07 05:07:06;;;;;;;;;;;7.00;99.90;;;;;;7335091;19;109073;-66
2023/04/07 05:09:34;;;;;;;;;;;7.00;99.90;;;;;;7335804;19;108610;-70
2023/04/07 05:12:01;;;;;;;;;;;7.00;99.90;;;;;;7339227;19;109199;-70
2023/04/07 05:14:28;;;;;;;;;;;7.00;99.90;;;;;;7343164;19;111356;-91
2023/04/07 05:25:18;;;;;;;;;;;7.00;99.90;;;;;;7336054;19;109365;-67
2023/04/07 05:27:45;;;;;;;;;;;6.90;99.90;;;;;;7336383;19;110260;-67
2023/04/07 05:30:13;;;;;;;;;;;6.90;99.90;;;;;;7333868;19;108600;-67
2023/04/07 05:32:40;;;;;;;;;;;6.80;99.90;;;;;;7333661;19;108576;-67
2023/04/07 05:35:07;;;;;;;;;;;6.80;99.90;;;;;;7333122;19;109461;-67
2023/04/07 05:37:34;;;;;;;;;;;6.80;99.90;;;;;;7335006;19;108922;-67
2023/04/07 05:40:01;;;;;;;;;;;6.80;99.90;;;;;;7333469;19;109898;-67
2023/04/07 05:42:28;;;;;;;;;;;6.90;99.90;;;;;;7340935;19;110043;-67
2023/04/07 05:44:56;;;;;;;;;;;6.90;99.90;;;;;;7335473;19;110270;-67
2023/04/07 05:47:23;;;;;;;;;;;6.90;99.90;;;;;;7333037;19;109046;-67
2023/04/07 05:49:50;;;;;;;;;;;6.90;99.90;;;;;;7334038;19;108615;-67
2023/04/07 05:52:17;;;;;;;;;;;6.80;99.90;;;;;;7336422;19;108853;-67
2023/04/07 05:54:44;;;;;;;;;;;6.80;99.90;;;;;;7334871;19;109709;-67
2023/04/07 05:57:12;;;;;;;;;;;6.90;99.90;;;;;;7334773;19;108426;-67
2023/04/07 05:59:39;;;;;;;;;;;6.90;99.90;;;;;;7334262;19;109506;-67
2023/04/07 06:02:06;;;;;;;;;;;7.00;99.90;;;;;;7332775;19;110133;-68
2023/04/07 06:04:35;;;;;;;;;;;7.00;99.90;;;;;;7341658;19;108453;-67
2023/04/07 06:07:02;;;;;;;;;;;7.10;99.90;;;;;;7332262;19;109093;-67
2023/04/07 06:09:29;;;;;;;;;;;7.20;99.90;;;;;;7333584;19;108992;-67
2023/04/07 06:11:56;;;;;;;;;;;7.30;99.90;;;;;;7334678;19;110213;-67
2023/04/07 06:14:23;;;;;;;;;;;7.30;99.90;;;;;;7334722;19;110387;-68
2023/04/07 06:16:50;;;;;;;;;;;7.40;99.90;;;;;;7337063;19;109423;-67
2023/04/07 06:19:17;;;;;;;;;;;7.50;99.90;;;;;;7331853;19;108717;-67
2023/04/07 06:21:44;;;;;;;;;;;7.60;99.90;;;;;;7333978;19;110586;-67
2023/04/07 06:24:11;;;;;;;;;;;7.70;99.90;;;;;;7337967;19;108402;-67
2023/04/07 06:26:39;;;;;;;;;;;7.80;99.90;;;;;;7330914;19;110245;-67
2023/04/07 06:29:06;;;;;;;;;;;7.80;99.90;;;;;;7334571;19;109791;-68
2023/04/07 06:31:33;;;;;;;;;;;7.90;99.90;;;;;;7333463;19;108726;-67
2023/04/07 06:34:00;;;;;;;;;;;8.00;99.90;;;;;;7333897;19;109323;-68
2023/04/07 06:36:27;;;;;;;;;;;8.00;99.90;;;;;;7330421;19;110009;-66
2023/04/07 06:38:55;;;;;;;;;;;8.10;99.90;;;;;;7335192;19;108655;-67
2023/04/07 06:41:22;;;;;;;;;;;8.20;99.90;;;;;;7331699;19;110002;-67
2023/04/07 06:43:52;;;;;;;;;;;8.20;99.90;;;;;;7334067;19;108339;-68
2023/04/07 06:46:19;;;;;;;;;;;8.30;99.90;;;;;;7338358;19;108727;-67
2023/04/07 06:48:46;;;;;;;;;;;8.40;99.90;;;;;;7334724;19;107980;-67
2023/04/07 06:51:13;;;;;;;;;;;8.40;99.90;;;;;;7333904;19;109434;-67
2023/04/07 06:53:40;;;;;;;;;;;8.50;99.90;;;;;;7332109;19;110377;-67
2023/04/07 06:56:09;;;;;;;;;;;8.60;99.90;;;;;;7332988;19;109930;-67
2023/04/07 06:58:42;;;;;;;;;;;8.70;99.90;;;;;;7332818;19;109127;-67
2023/04/07 07:01:09;;;;;;;;;;;8.80;99.90;;;;;;7333673;19;109653;-68
2023/04/07 07:03:36;;;;;;;;;;;9.00;99.90;;;;;;7334975;19;108704;-67
2023/04/07 07:06:03;;;;;;;;;;;9.10;99.90;;;;;;7336782;19;112432;-67
2023/04/07 07:08:31;;;;;;;;;;;9.30;99.90;;;;;;7339516;19;110525;-67
2023/04/07 07:10:58;;;;;;;;;;;9.30;99.90;;;;;;7339171;19;109100;-67
2023/04/07 07:13:25;;;;;;;;;;;9.40;99.90;;;;;;7336560;19;109622;-68
2023/04/07 07:15:52;;;;;;;;;;;9.50;99.90;;;;;;7339161;19;110226;-71
2023/04/07 07:18:19;;;;;;;;;;;9.60;99.90;;;;;;7337041;19;111338;-71
2023/04/07 07:20:46;;;;;;;;;;;9.60;99.90;;;;;;7339900;19;109368;-70
2023/04/07 07:23:16;;;;;;;;;;;9.70;99.90;;;;;;7336557;19;108548;-71
2023/04/07 07:25:43;;;;;;;;;;;9.80;99.90;;;;;;7339488;19;108679;-70
2023/04/07 07:28:10;;;;;;;;;;;9.90;99.90;;;;;;7335386;19;109676;-70
2023/04/07 07:30:39;;;;;;;;;;;9.90;99.90;;;;;;7345929;19;108990;-70
2023/04/07 07:33:06;;;;;;;;;;;10.00;99.90;;;;;;7336268;19;110078;-70
2023/04/07 07:35:34;;;;;;;;;;;10.10;99.90;;;;;;7338380;19;109244;-70
2023/04/07 07:38:01;;;;;;;;;;;10.20;99.90;;;;;;7337546;19;108714;-71
2023/04/07 07:40:28;;;;;;;;;;;10.20;99.90;;;;;;7337016;19;110033;-70
2023/04/07 07:42:55;;;;;;;;;;;10.30;99.90;;;;;;7338840;19;108370;-70
2023/04/07 07:45:22;;;;;;;;;;;10.40;99.90;;;;;;7336024;19;109524;-70
2023/04/07 07:47:49;;;;;;;;;;;10.40;99.90;;;;;;7338773;19;109685;-70
2023/04/07 07:50:16;;;;;;;;;;;10.40;99.90;;;;;;7340923;19;109142;-70
2023/04/07 07:52:43;;;;;;;;;;;10.50;99.90;;;;;;7344032;19;109678;-70
2023/04/07 07:55:10;;;;;;;;;;;10.50;99.90;;;;;;7340349;19;108647;-70
2023/04/07 07:57:38;;;;;;;;;;;10.60;99.90;;;;;;7337317;19;110905;-70
2023/04/07 08:00:05;;;;;;;;;;;10.60;99.90;;;;;;7340146;19;110095;-70
2023/04/07 08:02:32;;;;;;;;;;;10.60;99.90;;;;;;7338177;19;108395;-70
2023/04/07 08:05:00;;;;;;;;;;;10.70;99.90;;;;;;7337579;19;109434;-70
2023/04/07 08:07:27;;;;;;;;;;;10.70;99.90;;;;;;7338006;19;109044;-70
2023/04/07 08:09:54;;;;;;;;;;;10.70;99.90;;;;;;7338094;19;108282;-71
2023/04/07 08:12:21;;;;;;;;;;;10.70;99.90;;;;;;7341176;19;108838;-70
2023/04/07 08:14:49;;;;;;;;;;;10.70;99.90;;;;;;7336909;19;108545;-71
2023/04/07 08:17:16;;;;;;;;;;;10.70;99.90;;;;;;7339605;19;108757;-70
2023/04/07 08:19:43;;;;;;;;;;;10.80;99.90;;;;;;7338466;19;109275;-71
2023/04/07 08:22:10;;;;;;;;;;;10.70;99.90;;;;;;7338494;19;110510;-70
2023/04/07 08:24:39;;;;;;;;;;;10.70;99.90;;;;;;7338222;19;108803;-70
2023/04/07 08:27:06;;;;;;;;;;;10.80;99.90;;;;;;7336200;19;109652;-70
2023/04/07 08:29:33;;;;;;;;;;;10.90;99.90;;;;;;7337706;19;108502;-72
2023/04/07 08:32:00;;;;;;;;;;;11.00;99.90;;;;;;7335093;19;109862;-71
2023/04/07 08:34:27;;;;;;;;;;;11.00;99.90;;;;;;7343959;19;110313;-73
2023/04/07 08:36:55;;;;;;;;;;;11.10;99.90;;;;;;7337972;19;110158;-71
2023/04/07 08:39:24;;;;;;;;;;;11.10;99.90;;;;;;7338097;19;110004;-71
2023/04/07 08:41:51;;;;;;;;;;;11.20;99.90;;;;;;7338319;19;108412;-71
2023/04/07 08:44:20;;;;;;;;;;;11.20;99.90;;;;;;7339329;19;108259;-71
2023/04/07 08:46:49;;;;;;;;;;;11.30;99.90;;;;;;7337353;19;109254;-71
2023/04/07 08:49:16;;;;;;;;;;;11.40;99.90;;;;;;7335298;19;109194;-71
2023/04/07 08:51:46;;;;;;;;;;;11.50;99.90;;;;;;7337663;19;108947;-71
2023/04/07 08:54:15;;;;;;;;;;;11.60;99.90;;;;;;7336791;19;109049;-71
2023/04/07 08:56:42;;;;;;;;;;;11.70;99.90;;;;;;7344942;19;108899;-70
2023/04/07 08:59:10;;;;;;;;;;;11.70;99.90;;;;;;7336479;19;110290;-70
2023/04/07 09:01:38;;;;;;;;;;;11.80;99.90;;;;;;7336743;19;110400;-71
2023/04/07 09:04:06;;;;;;;;;;;11.90;99.90;;;;;;7338166;19;109123;-70
2023/04/07 09:06:34;;;;;;;;;;;12.00;99.90;;;;;;7336066;19;110518;-70
2023/04/07 09:09:02;;;;;;;;;;;12.00;99.90;;;;;;7338004;19;108273;-71
2023/04/07 09:11:34;;;;;;;;;;;12.00;99.90;;;;;;7337651;19;109124;-70
2023/04/07 09:14:01;;;;;;;;;;;12.10;99.90;;;;;;7334699;19;110747;-70
2023/04/07 09:16:29;;;;;;;;;;;12.20;99.90;;;;;;7336878;19;108895;-71
2023/04/07 09:18:57;;;;;;;;;;;12.20;99.90;;;;;;7343225;19;108973;-71
2023/04/07 09:21:25;;;;;;;;;;;12.10;99.90;;;;;;7335571;19;109499;-71
2023/04/07 09:23:53;;;;;;;;;;;12.10;99.90;;;;;;7337646;19;109009;-71
2023/04/07 09:29:02;;;;;;;;;;;12.10;99.90;;;;;;7337208;19;108828;-79
2023/04/07 09:31:45;;;;;;;;;;;12.10;99.90;;;;;;7334148;19;108624;-81
2023/04/07 09:34:39;;;;;;;;;;;12.20;99.90;;;;;;7334813;19;109388;-78
2023/04/07 09:37:08;;;;;;;;;;;12.30;99.90;;;;;;7333921;19;108459;-77
2023/04/07 09:39:52;;;;;;;;;;;12.30;99.90;;;;;;7335170;19;109397;-76
2023/04/07 09:42:22;;;;;;;;;;;12.40;99.90;;;;;;7339624;19;110332;-75
2023/04/07 09:44:49;;;;;;;;;;;12.40;99.90;;;;;;7337325;19;109259;-77
2023/04/07 09:47:16;;;;;;;;;;;12.50;99.90;;;;;;7354230;19;110162;-91
2023/04/07 09:49:48;;;;;;;;;;;12.50;99.90;;;;;;7349604;19;108216;-92
2023/04/07 09:52:16;;;;;;;;;;;12.60;99.90;;;;;;7345813;19;109188;-92
2023/04/07 09:54:44;;;;;;;;;;;12.60;99.90;;;;;;7345587;19;111134;-91
2023/04/07 09:57:12;;;;;;;;;;;12.60;99.90;;;;;;7348157;19;109131;-90
2023/04/07 09:59:43;;;;;;;;;;;12.60;99.90;;;;;;7349985;19;110149;-89
2023/04/07 10:02:11;;;;;;;;;;;12.70;99.90;;;;;;7348478;19;109495;-90
2023/04/07 10:04:39;;;;;;;;;;;12.70;99.90;;;;;;7352649;19;108156;-91
2023/04/07 10:07:06;;;;;;;;;;;12.70;99.90;;;;;;7343057;19;110274;-90
2023/04/07 10:09:34;;;;;;;;;;;12.60;99.90;;;;;;7344104;19;108850;-91
2023/04/07 10:12:01;;;;;;;;;;;12.50;99.90;;;;;;7349912;19;108429;-90
2023/04/07 10:14:32;;;;;;;;;;;12.50;99.90;;;;;;7346858;19;111489;-90
2023/04/07 10:16:59;;;;;;;;;;;12.50;99.90;;;;;;7344525;19;108404;-90
2023/04/07 10:19:29;;;;;;;;;;;12.50;99.90;;;;;;7341242;19;109005;-91
2023/04/07 10:21:57;;;;;;;;;;;12.50;99.90;;;;;;7344476;19;109708;-91
2023/04/07 10:24:44;;;;;;;;;;;12.60;99.90;;;;;;7346996;19;108512;-92
2023/04/07 10:27:15;;;;;;;;;;;12.80;99.90;;;;;;7340527;19;110213;-92
2023/04/07 10:29:43;;;;;;;;;;;12.90;99.90;;;;;;7342572;19;108437;-92
2023/04/07 10:32:10;;;;;;;;;;;13.00;99.90;;;;;;7340727;19;111729;-91
2023/04/07 10:34:52;;;;;;;;;;;12.90;99.90;;;;;;7338879;19;111159;-90
2023/04/07 10:37:22;;;;;;;;;;;13.00;99.90;;;;;;7344494;19;108665;-90
2023/04/07 10:39:50;;;;;;;;;;;13.00;99.90;;;;;;7347564;19;109125;-91
2023/04/07 10:42:36;;;;;;;;;;;13.00;99.90;;;;;;7349110;19;110540;-90
2023/04/07 10:45:04;;;;;;;;;;;13.00;99.90;;;;;;7348266;19;109136;-90
2023/04/07 10:47:31;;;;;;;;;;;13.00;99.90;;;;;;7352221;19;109867;-92
2023/04/07 10:50:17;;;;;;;;;;;13.00;99.90;;;;;;7351361;19;108457;-91
2023/04/07 10:52:49;;;;;;;;;;;13.00;99.90;;;;;;7347530;19;109292;-91
2023/04/07 10:55:31;;;;;;;;;;;13.10;99.90;;;;;;7346847;19;110267;-91
2023/04/07 10:58:17;;;;;;;;;;;13.10;99.90;;;;;;7349086;19;109678;-90
2023/04/07 11:01:04;;;;;;;;;;;13.10;99.90;;;;;;7347876;19;109607;-89
2023/04/07 11:03:36;;;;;;;;;;;13.10;99.90;;;;;;7347773;19;110255;-90
2023/04/07 11:06:04;;;;;;;;;;;13.00;99.90;;;;;;7346780;19;108751;-91
2023/04/07 11:08:37;;;;;;;;;;;12.80;99.90;;;;;;7348685;19;109580;-91
2023/04/07 11:11:07;;;;;;;;;;;12.80;99.90;;;;;;7354491;19;109059;-89
2023/04/07 11:13:42;;;;;;;;;;;12.70;99.90;;;;;;7348738;19;111285;-90
2023/04/07 11:16:09;;;;;;;;;;;12.60;99.90;;;;;;7350652;19;109120;-90
2023/04/07 11:18:36;;;;;;;;;;;12.60;99.90;;;;;;7348353;19;109189;-91
2023/04/07 11:21:07;;;;;;;;;;;12.70;99.90;;;;;;7347278;19;108348;-89
2023/04/07 11:23:41;;;;;;;;;;;12.70;99.90;;;;;;7346446;19;110701;-90
2023/04/07 11:26:10;;;;;;;;;;;12.70;99.90;;;;;;7346899;19;108594;-90
2023/04/07 11:28:53;;;;;;;;;;;12.70;99.90;;;;;;7347915;19;109454;-90
2023/04/07 11:31:20;;;;;;;;;;;12.70;99.90;;;;;;7344383;19;112280;-91
2023/04/07 11:33:52;;;;;;;;;;;12.60;99.90;;;;;;7351826;19;108328;-90
2023/04/07 11:36:29;;;;;;;;;;;12.50;99.90;;;;;;7346618;19;110840;-90
2023/04/07 11:38:57;;;;;;;;;;;12.50;99.90;;;;;;7347830;19;108746;-91
2023/04/07 11:41:29;;;;;;;;;;;12.60;99.90;;;;;;7348727;19;109450;-90
2023/04/07 11:44:06;;;;;;;;;;;12.60;99.90;;;;;;7349951;19;110385;-90
2023/04/07 11:46:34;;;;;;;;;;;12.70;99.90;;;;;;7348787;19;108383;-90
2023/04/07 11:49:09;;;;;;;;;;;12.70;99.90;;;;;;7344224;19;109103;-90
2023/04/07 11:51:36;;;;;;;;;;;12.70;99.90;;;;;;7351108;19;109700;-91
2023/04/07 11:54:03;;;;;;;;;;;12.80;99.90;;;;;;7355940;19;108219;-90
2023/04/07 11:56:40;;;;;;;;;;;12.80;99.90;;;;;;7361620;19;109653;-90
2023/04/07 11:59:07;;;;;;;;;;;12.90;99.90;;;;;;7359230;19;112345;-91
2023/04/07 12:01:38;;;;;;;;;;;12.90;99.90;;;;;;7353254;19;109258;-90
2023/04/07 12:04:05;;;;;;;;;;;12.90;99.90;;;;;;7354265;19;112532;-91
2023/04/07 12:06:33;;;;;;;;;;;12.90;99.90;;;;;;7355971;19;108299;-91
2023/04/07 12:09:01;;;;;;;;;;;13.00;99.90;;;;;;7359719;19;109096;-91
2023/04/07 12:11:29;;;;;;;;;;;13.10;99.90;;;;;;7359505;19;108423;-91
2023/04/07 12:13:56;;;;;;;;;;;13.10;99.90;;;;;;7361735;19;108044;-90
2023/04/07 12:16:23;;;;;;;;;;;13.20;99.90;;;;;;7361251;19;108535;-91
2023/04/07 12:18:50;;;;;;;;;;;13.20;99.90;;;;;;7365714;19;109417;-91
2023/04/07 12:21:18;;;;;;;;;;;13.30;99.90;;;;;;7358904;19;109449;-90
2023/04/07 12:23:46;;;;;;;;;;;13.30;99.90;;;;;;7361710;19;109294;-91
2023/04/07 12:26:13;;;;;;;;;;;13.20;99.90;;;;;;7361331;19;108255;-91
2023/04/07 12:28:40;;;;;;;;;;;13.10;99.90;;;;;;7361513;19;109520;-90
2023/04/07 12:31:07;;;;;;;;;;;13.00;99.90;;;;;;7360630;19;109190;-91
2023/04/07 12:33:34;;;;;;;;;;;12.80;99.90;;;;;;7359308;19;108074;-90
2023/04/07 12:36:01;;;;;;;;;;;12.80;99.90;;;;;;7362542;19;109963;-90
2023/04/07 12:38:29;;;;;;;;;;;12.70;99.90;;;;;;7363473;19;111690;-91
2023/04/07 12:41:02;;;;;;;;;;;12.80;99.90;;;;;;7362266;19;108237;-91
2023/04/07 12:43:29;;;;;;;;;;;12.70;99.90;;;;;;7363507;19;109112;-91
2023/04/07 12:45:57;;;;;;;;;;;12.80;99.90;;;;;;7351954;19;109850;-91
2023/04/07 12:48:26;;;;;;;;;;;12.70;99.90;;;;;;7348044;19;109085;-92
2023/04/07 12:50:53;;;;;;;;;;;12.70;99.90;;;;;;7349633;19;109303;-91
2023/04/07 12:53:20;;;;;;;;;;;12.90;99.90;;;;;;7348361;19;108440;-91
2023/04/07 12:55:47;;;;;;;;;;;13.00;99.90;;;;;;7351388;19;108421;-91
2023/04/07 12:58:16;;;;;;;;;;;13.20;99.90;;;;;;7346171;19;110198;-92
2023/04/07 13:00:43;;;;;;;;;;;13.30;99.90;;;;;;7352677;19;108629;-91
2023/04/07 13:03:11;;;;;;;;;;;13.30;99.90;;;;;;7344708;19;110664;-91
2023/04/07 13:05:38;;;;;;;;;;;13.20;99.90;;;;;;7346125;19;108964;-91
2023/04/07 13:08:06;;;;;;;;;;;13.20;99.90;;;;;;7347217;19;111713;-91
2023/04/07 13:10:33;;;;;;;;;;;13.10;99.90;;;;;;7347037;19;109563;-91
2023/04/07 13:13:04;;;;;;;;;;;12.90;99.90;;;;;;7350014;19;108467;-90
2023/04/07 13:15:31;;;;;;;;;;;12.90;99.90;;;;;;7345514;19;110545;-92
2023/04/07 13:17:58;;;;;;;;;;;12.80;99.90;;;;;;7344718;19;110522;-90
2023/04/07 13:20:26;;;;;;;;;;;12.80;99.90;;;;;;7347382;19;108768;-92
2023/04/07 13:22:54;;;;;;;;;;;12.70;99.90;;;;;;7351903;19;108786;-91
2023/04/07 13:25:35;;;;;;;;;;;12.60;99.90;;;;;;7348257;19;108428;-91
2023/04/07 13:28:02;;;;;;;;;;;12.60;99.90;;;;;;7350906;19;109151;-91
2023/04/07 13:30:29;;;;;;;;;;;12.60;99.90;;;;;;7332314;19;110144;-70
2023/04/07 13:32:56;;;;;;;;;;;12.50;99.90;;;;;;7336269;19;110385;-69
2023/04/07 13:35:23;;;;;;;;;;;12.60;99.90;;;;;;7336412;19;108634;-70
2023/04/07 13:37:51;;;;;;;;;;;12.60;99.90;;;;;;7336345;19;110526;-71
2023/04/07 13:40:18;;;;;;;;;;;12.50;99.90;;;;;;7336576;19;108849;-70
2023/04/07 13:42:46;;;;;;;;;;;12.50;99.90;;;;;;7337001;19;108233;-70
2023/04/07 13:45:13;;;;;;;;;;;12.50;99.90;;;;;;7340718;19;109822;-70
2023/04/07 13:47:40;;;;;;;;;;;12.50;99.90;;;;;;7333927;19;109333;-70
2023/04/07 13:50:07;;;;;;;;;;;12.50;99.90;;;;;;7336420;19;110182;-72
2023/04/07 13:52:34;;;;;;;;;;;12.60;99.90;;;;;;7335930;19;109110;-70
2023/04/07 13:55:03;;;;;;;;;;;12.70;99.90;;;;;;7334976;19;109279;-70
2023/04/07 13:57:30;;;;;;;;;;;12.80;99.90;;;;;;7334837;19;110507;-70
2023/04/07 13:59:57;;;;;;;;;;;12.80;99.90;;;;;;7337050;19;108819;-71
2023/04/07 14:02:26;;;;;;;;;;;12.90;99.90;;;;;;7336078;19;109230;-70
2023/04/07 14:04:54;;;;;;;;;;;12.90;99.90;;;;;;7333566;19;110517;-70
2023/04/07 14:07:21;;;;;;;;;;;12.90;99.90;;;;;;7338385;19;108699;-70
2023/04/07 14:09:49;;;;;;;;;;;12.90;99.90;;;;;;7335592;19;110086;-70
2023/04/07 14:12:16;;;;;;;;;;;12.90;99.90;;;;;;7341392;19;109491;-70
2023/04/07 14:14:43;;;;;;;;;;;12.70;99.90;;;;;;7340492;19;110060;-70
2023/04/07 14:17:10;;;;;;;;;;;12.50;99.90;;;;;;7342300;19;110051;-70
2023/04/07 14:19:37;;;;;;;;;;;12.50;99.90;;;;;;7341482;19;113362;-70
2023/04/07 14:22:05;;;;;;;;;;;12.40;99.90;;;;;;7342877;19;112067;-72
2023/04/07 14:24:32;;;;;;;;;;;12.40;99.90;;;;;;7340731;19;109378;-70
2023/04/07 14:27:02;;;;;;;;;;;12.40;99.90;;;;;;7343280;19;108290;-70
2023/04/07 14:29:29;;;;;;;;;;;12.50;99.90;;;;;;7349543;19;108402;-70
2023/04/07 14:31:56;;;;;;;;;;;12.50;99.90;;;;;;7341242;19;108859;-70
2023/04/07 14:34:23;;;;;;;;;;;12.60;99.90;;;;;;7342724;19;109503;-70
2023/04/07 14:36:54;;;;;;;;;;;12.60;99.90;;;;;;7341390;19;113023;-79
2023/04/07 14:39:22;;;;;;;;;;;12.60;99.90;;;;;;7339857;19;109596;-78
2023/04/07 14:41:51;;;;;;;;;;;12.70;99.90;;;;;;7344338;19;108807;-79
2023/04/07 14:44:18;;;;;;;;;;;12.70;99.90;;;;;;7340402;19;108950;-75
2023/04/07 14:46:45;;;;;;;;;;;12.60;99.90;;;;;;7344456;19;108444;-75
2023/04/07 14:49:13;;;;;;;;;;;12.60;99.90;;;;;;7348304;19;109380;-73
2023/04/07 14:51:40;;;;;;;;;;;12.60;99.90;;;;;;7342118;19;108689;-70